Time;durP1;ratioP1;P1;durP2;ratioP2;P2;SDS_P1;SDS_P2;PMS_P1;PMS_P2;Temp;Humidity;BMP_temperature;BMP_pressure;BME280_temperature;BME280_humidity;BME280_pressure;Samples;Min_cycle;Max_cycle;Signal;HPM_P1;HPM_P2
2022/01/25 00:26:41;;;;;;;76.32;37.05;;;;;;;;;;5075273;28;20038;-73
2022/01/25 00:29:26;;;;;;;101.93;43.72;;;;;;;;;;5074860;28;20030;-74
2022/01/25 00:31:51;;;;;;;84.20;36.17;;;;;;;;;;5075448;28;20051;-73
2022/01/25 00:34:16;;;;;;;104.00;43.55;;;;;;;;;;5072966;28;20058;-74
2022/01/25 00:36:42;;;;;;;85.13;38.03;;;;;;;;;;5072403;28;20044;-73
2022/01/25 00:39:07;;;;;;;74.55;35.53;;;;;;;;;;5073053;28;20382;-73
2022/01/25 00:41:33;;;;;;;83.35;37.30;;;;;;;;;;5075642;28;20028;-74
2022/01/25 00:44:00;;;;;;;66.15;31.63;;;;;;;;;;5075406;28;20067;-74
2022/01/25 00:46:25;;;;;;;63.92;30.02;;;;;;;;;;5073446;28;20024;-72
2022/01/25 00:48:54;;;;;;;69.28;31.20;;;;;;;;;;5074305;28;20027;-73
2022/01/25 00:54:02;;;;;;;70.90;29.42;;;;;;;;;;5074876;28;20016;-74
2022/01/25 00:56:33;;;;;;;61.42;27.75;;;;;;;;;;5074211;28;20028;-73
2022/01/25 00:58:59;;;;;;;67.50;31.38;;;;;;;;;;5073153;28;20391;-74
2022/01/25 01:01:25;;;;;;;60.28;27.13;;;;;;;;;;5075337;28;20085;-74
2022/01/25 01:03:50;;;;;;;62.83;28.25;;;;;;;;;;5075825;28;20024;-75
2022/01/25 01:06:16;;;;;;;64.50;30.95;;;;;;;;;;5074768;28;20043;-73
2022/01/25 01:08:42;;;;;;;69.03;35.50;;;;;;;;;;5074540;28;20020;-74
2022/01/25 01:11:12;;;;;;;61.22;33.83;;;;;;;;;;5075194;28;20103;-74
2022/01/25 01:43:27;;;;;;;138.00;58.38;;;;;;;;;;5074277;28;20020;-74
2022/01/25 01:48:42;;;;;;;345.45;127.25;;;;;;;;;;5074754;28;20063;-74
2022/01/25 01:51:25;;;;;;;131.65;54.00;;;;;;;;;;5074455;28;20031;-73
2022/01/25 01:53:51;;;;;;;92.72;37.28;;;;;;;;;;5076244;28;20471;-73
2022/01/25 01:56:17;;;;;;;68.85;33.15;;;;;;;;;;5076357;28;20042;-74
2022/01/25 01:58:42;;;;;;;85.38;38.17;;;;;;;;;;5078884;28;20502;-74
2022/01/25 02:01:09;;;;;;;86.55;36.95;;;;;;;;;;5075877;28;20031;-73
2022/01/25 02:03:35;;;;;;;130.05;49.55;;;;;;;;;;5077464;28;20055;-74
2022/01/25 02:06:00;;;;;;;104.00;43.67;;;;;;;;;;5077324;28;20082;-74
2022/01/25 02:08:26;;;;;;;91.78;37.20;;;;;;;;;;5077372;28;20039;-74
2022/01/25 02:10:51;;;;;;;187.18;71.55;;;;;;;;;;5075988;28;20017;-73
2022/01/25 02:13:17;;;;;;;131.23;48.80;;;;;;;;;;5067782;28;20123;-73
2022/01/25 02:15:47;;;;;;;216.98;79.07;;;;;;;;;;5058064;28;20117;-74
2022/01/25 02:23:31;;;;;;;75.45;33.47;;;;;;;;;;5057065;28;20074;-73
2022/01/25 02:25:58;;;;;;;106.60;48.63;;;;;;;;;;5055449;28;20459;-74
2022/01/25 02:28:31;;;;;;;161.02;72.63;;;;;;;;;;5055278;28;20028;-74
2022/01/25 02:30:56;;;;;;;168.98;72.80;;;;;;;;;;5057843;28;20023;-74
2022/01/25 02:33:22;;;;;;;143.13;63.85;;;;;;;;;;5058445;28;20017;-74
2022/01/25 02:35:48;;;;;;;105.15;49.20;;;;;;;;;;5056625;28;20021;-73
2022/01/25 02:38:14;;;;;;;137.57;59.67;;;;;;;;;;5075073;28;20032;-75
2022/01/25 02:40:40;;;;;;;151.18;66.38;;;;;;;;;;5075071;28;20028;-75
2022/01/25 02:43:05;;;;;;;145.15;65.38;;;;;;;;;;5076182;28;20031;-75
2022/01/25 02:45:35;;;;;;;120.45;52.63;;;;;;;;;;5078137;28;20024;-74
2022/01/25 02:50:47;;;;;;;110.50;46.20;;;;;;;;;;5076473;28;20022;-74
2022/01/25 02:53:13;;;;;;;114.00;52.60;;;;;;;;;;5076920;28;20106;-74
2022/01/25 02:55:39;;;;;;;94.25;43.08;;;;;;;;;;5076572;28;20116;-75
2022/01/25 02:58:05;;;;;;;98.50;45.88;;;;;;;;;;5074501;28;20027;-74
2022/01/25 03:00:30;;;;;;;83.32;40.20;;;;;;;;;;5077090;28;20032;-74
2022/01/25 03:02:56;;;;;;;84.43;39.05;;;;;;;;;;5076465;28;20509;-75
2022/01/25 03:05:22;;;;;;;92.82;46.17;;;;;;;;;;5076472;28;20114;-75
2022/01/25 03:07:47;;;;;;;127.03;69.88;;;;;;;;;;5077358;28;20102;-75
2022/01/25 03:10:13;;;;;;;91.43;46.05;;;;;;;;;;5077148;28;20039;-74
2022/01/25 03:12:53;;;;;;;82.28;40.00;;;;;;;;;;5075134;28;20020;-74
2022/01/25 03:17:57;;;;;;;67.80;31.33;;;;;;;;;;5075949;28;19982;-75
2022/01/25 03:21:17;;;;;;;;;;;;;;;;;;5076621;28;20081;-74
2022/01/25 03:23:18;;;;;;;54.45;27.35;;;;;;;;;;5072511;28;19904;-74
2022/01/25 03:25:43;;;;;;;69.55;31.77;;;;;;;;;;5076568;28;20024;-74
2022/01/25 03:28:09;;;;;;;81.63;34.40;;;;;;;;;;5076639;28;20024;-74
2022/01/25 03:30:34;;;;;;;90.25;36.05;;;;;;;;;;5077041;28;20028;-74
2022/01/25 03:33:00;;;;;;;93.43;36.65;;;;;;;;;;5076725;28;20124;-75
2022/01/25 03:35:25;;;;;;;73.85;31.05;;;;;;;;;;5074851;28;20059;-74
2022/01/25 03:37:50;;;;;;;67.43;31.23;;;;;;;;;;5072149;28;20032;-73
2022/01/25 03:40:16;;;;;;;46.92;22.55;;;;;;;;;;5056661;28;20032;-75
2022/01/25 03:42:41;;;;;;;46.47;21.73;;;;;;;;;;5054588;28;20035;-75
2022/01/25 03:45:07;;;;;;;55.78;25.20;;;;;;;;;;5056522;28;20027;-75
2022/01/25 03:47:45;;;;;;;54.33;25.23;;;;;;;;;;5055715;28;20051;-75
2022/01/25 03:50:11;;;;;;;62.58;28.83;;;;;;;;;;5056521;28;20107;-74
2022/01/25 03:52:37;;;;;;;68.25;30.67;;;;;;;;;;5054023;28;20115;-74
2022/01/25 03:55:03;;;;;;;79.18;34.65;;;;;;;;;;5055426;28;21064;-74
2022/01/25 03:57:29;;;;;;;62.63;29.85;;;;;;;;;;5061804;28;20020;-74
2022/01/25 03:59:56;;;;;;;63.47;30.08;;;;;;;;;;5074863;28;20031;-75
2022/01/25 04:02:22;;;;;;;61.25;28.67;;;;;;;;;;5074203;28;20119;-75
2022/01/25 04:04:50;;;;;;;63.03;29.83;;;;;;;;;;5075411;28;20051;-75
2022/01/25 04:07:24;;;;;;;65.93;30.30;;;;;;;;;;5073860;28;20023;-75
2022/01/25 04:09:49;;;;;;;83.30;36.30;;;;;;;;;;5075534;28;20048;-75
2022/01/25 04:12:17;;;;;;;110.00;47.05;;;;;;;;;;5076190;28;20035;-75
2022/01/25 04:14:42;;;;;;;171.60;64.15;;;;;;;;;;5072472;28;20052;-75
2022/01/25 04:17:10;;;;;;;70.22;29.83;;;;;;;;;;5074622;28;20024;-74
2022/01/25 04:19:46;;;;;;;70.22;31.05;;;;;;;;;;5073841;28;20118;-75
2022/01/25 04:27:22;;;;;;;56.47;26.20;;;;;;;;;;5075195;28;20872;-74
2022/01/25 04:29:47;;;;;;;60.47;27.02;;;;;;;;;;5073911;28;20467;-75
2022/01/25 04:32:14;;;;;;;71.40;31.23;;;;;;;;;;5073570;28;20024;-75
2022/01/25 04:34:43;;;;;;;69.05;31.27;;;;;;;;;;5076157;28;20482;-75
2022/01/25 04:53:10;;;;;;;118.10;48.63;;;;;;;;;;5075246;28;20376;-74
2022/01/25 04:58:21;;;;;;;230.70;93.32;;;;;;;;;;5074812;28;20097;-74
2022/01/25 05:00:47;;;;;;;152.27;67.88;;;;;;;;;;5073093;28;20026;-74
2022/01/25 05:03:20;;;;;;;104.82;45.03;;;;;;;;;;5073102;28;20016;-74
2022/01/25 05:06:05;;;;;;;98.38;45.15;;;;;;;;;;5074780;28;20039;-74
2022/01/25 05:08:43;;;;;;;75.35;35.85;;;;;;;;;;5075013;28;20188;-74
2022/01/25 05:11:20;;;;;;;205.38;76.20;;;;;;;;;;5072816;28;20135;-74
2022/01/25 05:16:35;;;;;;;72.82;30.95;;;;;;;;;;5074603;28;20071;-75
2022/01/25 05:24:27;;;;;;;95.10;42.30;;;;;;;;;;5074716;28;20035;-75
2022/01/25 05:26:52;;;;;;;111.50;48.65;;;;;;;;;;5076770;28;20032;-75
2022/01/25 05:29:18;;;;;;;78.60;39.03;;;;;;;;;;5078631;28;20030;-74
2022/01/25 05:31:43;;;;;;;75.25;35.72;;;;;;;;;;5079153;28;20692;-75
2022/01/25 05:34:09;;;;;;;104.35;48.13;;;;;;;;;;5076680;28;20066;-74
2022/01/25 05:36:38;;;;;;;75.93;39.05;;;;;;;;;;5076592;28;20051;-74
2022/01/25 05:39:10;;;;;;;69.22;35.92;;;;;;;;;;5076554;28;20024;-74
2022/01/25 05:41:35;;;;;;;82.13;44.33;;;;;;;;;;5078084;28;20432;-73
2022/01/25 05:44:23;;;;;;;107.72;53.28;;;;;;;;;;5078046;28;20024;-74
2022/01/25 05:47:04;;;;;;;105.68;52.15;;;;;;;;;;5078318;28;20409;-74
2022/01/25 05:49:30;;;;;;;143.90;77.95;;;;;;;;;;5077430;28;20024;-73
2022/01/25 05:51:55;;;;;;;231.20;115.78;;;;;;;;;;5075201;28;20020;-74
2022/01/25 05:54:21;;;;;;;194.63;90.97;;;;;;;;;;5074811;28;20027;-73
2022/01/25 05:56:46;;;;;;;139.15;60.28;;;;;;;;;;5076394;28;20036;-74
2022/01/25 05:59:11;;;;;;;288.45;115.03;;;;;;;;;;5076630;28;20027;-74
2022/01/25 06:01:37;;;;;;;162.10;66.80;;;;;;;;;;5075957;28;20046;-74
2022/01/25 06:04:02;;;;;;;170.02;70.22;;;;;;;;;;5075990;28;20020;-74
2022/01/25 06:06:29;;;;;;;95.72;43.50;;;;;;;;;;5074955;28;20360;-73
2022/01/25 06:08:55;;;;;;;256.25;92.07;;;;;;;;;;5075336;28;20119;-76
2022/01/25 06:11:21;;;;;;;231.52;94.15;;;;;;;;;;5056398;28;20464;-74
2022/01/25 06:13:46;;;;;;;306.23;122.85;;;;;;;;;;5056315;28;20028;-74
2022/01/25 06:16:12;;;;;;;208.48;82.35;;;;;;;;;;5057396;28;20042;-75
2022/01/25 06:18:37;;;;;;;413.13;160.15;;;;;;;;;;5057327;28;20060;-75
2022/01/25 06:21:03;;;;;;;761.70;414.00;;;;;;;;;;5055643;28;20431;-78
2022/01/25 06:23:28;;;;;;;545.40;274.23;;;;;;;;;;5059392;28;20032;-75
2022/01/25 06:25:53;;;;;;;408.60;190.05;;;;;;;;;;5064796;28;20017;-76
2022/01/25 06:28:19;;;;;;;429.67;187.75;;;;;;;;;;5064878;28;20028;-76
2022/01/25 06:30:45;;;;;;;270.33;114.75;;;;;;;;;;5055999;28;20433;-75
2022/01/25 06:33:10;;;;;;;208.38;93.43;;;;;;;;;;5057269;28;20029;-76
2022/01/25 06:35:36;;;;;;;218.13;107.95;;;;;;;;;;5055315;28;20024;-76
2022/01/25 06:38:01;;;;;;;161.30;79.70;;;;;;;;;;5054887;28;20029;-75
2022/01/25 06:40:27;;;;;;;114.55;52.20;;;;;;;;;;5055129;28;20470;-75
2022/01/25 06:42:53;;;;;;;91.13;44.20;;;;;;;;;;5058047;28;20024;-75
2022/01/25 06:45:20;;;;;;;76.55;34.03;;;;;;;;;;5055657;28;20078;-73
2022/01/25 06:47:47;;;;;;;98.55;48.67;;;;;;;;;;5056796;28;20033;-75
2022/01/25 06:50:13;;;;;;;155.48;75.65;;;;;;;;;;5056665;28;20020;-75
2022/01/25 06:52:41;;;;;;;152.65;74.32;;;;;;;;;;5060433;28;20032;-75
2022/01/25 06:55:07;;;;;;;189.48;82.88;;;;;;;;;;5071723;28;20024;-75
2022/01/25 06:57:33;;;;;;;157.15;67.32;;;;;;;;;;5069595;28;20024;-75
2022/01/25 06:59:58;;;;;;;120.10;56.42;;;;;;;;;;5072824;28;20437;-75
2022/01/25 07:02:23;;;;;;;133.93;67.25;;;;;;;;;;5072920;28;20020;-75
2022/01/25 07:04:49;;;;;;;209.25;96.85;;;;;;;;;;5076500;28;20031;-75
2022/01/25 07:07:14;;;;;;;244.82;106.25;;;;;;;;;;5074754;28;20024;-76
2022/01/25 07:09:39;;;;;;;219.63;106.15;;;;;;;;;;5075236;28;20028;-75
2022/01/25 07:12:05;;;;;;;120.53;58.80;;;;;;;;;;5075073;28;20020;-76
2022/01/25 07:14:31;;;;;;;118.63;61.55;;;;;;;;;;5073406;28;20052;-75
2022/01/25 07:16:56;;;;;;;95.70;44.63;;;;;;;;;;5075989;28;20390;-76
2022/01/25 07:19:21;;;;;;;101.38;55.05;;;;;;;;;;5076526;28;20023;-75
2022/01/25 07:21:47;;;;;;;81.03;43.05;;;;;;;;;;5074722;28;20028;-76
2022/01/25 07:24:12;;;;;;;111.82;60.72;;;;;;;;;;5076333;28;20028;-75
2022/01/25 07:26:37;;;;;;;98.45;56.10;;;;;;;;;;5076851;28;20478;-77
2022/01/25 07:29:03;;;;;;;93.47;49.08;;;;;;;;;;5075187;28;20391;-75
2022/01/25 07:31:28;;;;;;;137.43;74.93;;;;;;;;;;5074552;28;20390;-75
2022/01/25 07:33:53;;;;;;;134.82;71.82;;;;;;;;;;5074529;28;20023;-76
2022/01/25 07:36:19;;;;;;;105.60;59.42;;;;;;;;;;5076262;28;20023;-76
2022/01/25 07:38:44;;;;;;;107.95;55.20;;;;;;;;;;5074394;28;20040;-75
2022/01/25 07:41:09;;;;;;;126.18;64.50;;;;;;;;;;5077268;28;20031;-76
2022/01/25 07:43:35;;;;;;;116.28;56.25;;;;;;;;;;5075434;28;20020;-79
2022/01/25 07:46:04;;;;;;;99.07;50.78;;;;;;;;;;5076726;28;20506;-77
2022/01/25 07:48:30;;;;;;;68.15;37.28;;;;;;;;;;5074439;28;20024;-78
2022/01/25 07:50:55;;;;;;;77.05;42.20;;;;;;;;;;5076824;28;20035;-77
2022/01/25 07:53:21;;;;;;;67.25;34.45;;;;;;;;;;5076240;28;20563;-77
2022/01/25 07:55:46;;;;;;;61.90;31.25;;;;;;;;;;5075294;28;20028;-78
2022/01/25 07:58:11;;;;;;;68.95;34.00;;;;;;;;;;5075509;28;20028;-77
2022/01/25 08:00:37;;;;;;;61.38;33.00;;;;;;;;;;5075676;28;20035;-76
2022/01/25 08:03:02;;;;;;;65.25;34.50;;;;;;;;;;5070420;28;20027;-78
2022/01/25 08:05:27;;;;;;;51.92;28.75;;;;;;;;;;5074075;28;20473;-78
2022/01/25 08:07:53;;;;;;;66.75;37.35;;;;;;;;;;5072532;28;20370;-80
2022/01/25 08:10:19;;;;;;;51.40;29.60;;;;;;;;;;5073505;28;20036;-78
2022/01/25 08:12:44;;;;;;;54.90;28.92;;;;;;;;;;5061283;28;20027;-74
2022/01/25 08:15:10;;;;;;;54.65;29.63;;;;;;;;;;5063077;28;20049;-77
2022/01/25 08:17:35;;;;;;;55.70;30.35;;;;;;;;;;5064322;28;20039;-72
2022/01/25 08:20:02;;;;;;;50.95;29.15;;;;;;;;;;5065438;28;20071;-74
2022/01/25 08:22:28;;;;;;;50.42;28.50;;;;;;;;;;5063455;28;20051;-76
2022/01/25 08:24:53;;;;;;;54.53;28.83;;;;;;;;;;5064551;28;20052;-77
2022/01/25 08:27:20;;;;;;;52.78;26.20;;;;;;;;;;5066258;28;20031;-75
2022/01/25 08:29:49;;;;;;;53.97;27.05;;;;;;;;;;5064080;28;20863;-75
2022/01/25 08:32:14;;;;;;;62.95;33.72;;;;;;;;;;5065540;28;20031;-76
2022/01/25 08:34:39;;;;;;;123.90;80.13;;;;;;;;;;5063799;28;20021;-76
2022/01/25 08:37:05;;;;;;;125.35;77.03;;;;;;;;;;5066184;28;20024;-77
2022/01/25 08:39:31;;;;;;;69.10;36.35;;;;;;;;;;5067391;28;20032;-75
2022/01/25 08:41:56;;;;;;;80.20;47.55;;;;;;;;;;5073745;28;20016;-76
2022/01/25 08:44:21;;;;;;;62.65;33.05;;;;;;;;;;5075632;28;20455;-75
2022/01/25 08:46:47;;;;;;;66.88;30.52;;;;;;;;;;5074910;28;20063;-76
2022/01/25 08:49:12;;;;;;;85.13;40.13;;;;;;;;;;5075644;28;20024;-76
2022/01/25 08:51:38;;;;;;;96.70;44.58;;;;;;;;;;5073554;28;20016;-74
2022/01/25 08:54:03;;;;;;;102.72;47.83;;;;;;;;;;5074823;28;20050;-74
2022/01/25 08:56:29;;;;;;;60.35;31.67;;;;;;;;;;5060596;28;20115;-76
2022/01/25 08:58:54;;;;;;;107.45;56.15;;;;;;;;;;5053480;28;20486;-74
2022/01/25 09:01:20;;;;;;;136.00;64.55;;;;;;;;;;5056916;28;20115;-73
2022/01/25 09:03:45;;;;;;;56.83;30.80;;;;;;;;;;5057609;28;20517;-73
2022/01/25 09:06:11;;;;;;;49.28;27.52;;;;;;;;;;5077652;28;20028;-74
2022/01/25 09:08:36;;;;;;;41.20;23.20;;;;;;;;;;5079782;28;20054;-75
2022/01/25 09:11:04;;;;;;;64.07;37.00;;;;;;;;;;5077700;28;20028;-78
2022/01/25 09:13:30;;;;;;;66.18;35.83;;;;;;;;;;5079336;28;20016;-74
2022/01/25 09:15:56;;;;;;;55.80;27.52;;;;;;;;;;5077097;28;20071;-79
2022/01/25 09:18:21;;;;;;;49.22;27.63;;;;;;;;;;5076897;28;20390;-78
2022/01/25 09:20:46;;;;;;;48.50;28.73;;;;;;;;;;5068755;28;20032;-79
2022/01/25 09:23:12;;;;;;;72.50;37.20;;;;;;;;;;5066023;28;20020;-78
2022/01/25 09:25:37;;;;;;;58.10;31.55;;;;;;;;;;5067527;28;20133;-78
2022/01/25 09:28:03;;;;;;;70.00;38.63;;;;;;;;;;5065741;28;20021;-78
2022/01/25 09:30:28;;;;;;;64.80;36.95;;;;;;;;;;5067774;28;20099;-78
2022/01/25 09:32:54;;;;;;;74.25;37.33;;;;;;;;;;5068964;28;20119;-79
2022/01/25 09:35:19;;;;;;;44.80;27.73;;;;;;;;;;5067965;28;20482;-78
2022/01/25 09:37:45;;;;;;;42.95;23.85;;;;;;;;;;5067057;28;20024;-78
2022/01/25 09:40:10;;;;;;;88.53;47.08;;;;;;;;;;5068344;28;20055;-78
2022/01/25 09:42:37;;;;;;;70.18;35.60;;;;;;;;;;5071474;28;20020;-78
2022/01/25 09:45:03;;;;;;;64.68;31.55;;;;;;;;;;5066845;28;20515;-78
2022/01/25 09:47:28;;;;;;;103.20;50.70;;;;;;;;;;5068437;28;20112;-77
2022/01/25 09:49:54;;;;;;;60.35;32.78;;;;;;;;;;5066095;28;20027;-79
2022/01/25 09:52:19;;;;;;;87.85;45.78;;;;;;;;;;5065516;28;20036;-75
2022/01/25 09:54:52;;;;;;;50.28;27.50;;;;;;;;;;5068791;28;20511;-76
2022/01/25 09:57:17;;;;;;;68.50;35.45;;;;;;;;;;5065248;28;20081;-77
2022/01/25 09:59:43;;;;;;;85.28;46.78;;;;;;;;;;5060884;28;20032;-75
2022/01/25 10:02:08;;;;;;;89.35;43.88;;;;;;;;;;5058081;28;20059;-76
2022/01/25 10:04:37;;;;;;;51.85;30.90;;;;;;;;;;5056878;28;20413;-76
2022/01/25 10:07:04;;;;;;;103.38;54.30;;;;;;;;;;5063578;28;20027;-76
2022/01/25 10:09:30;;;;;;;42.58;23.23;;;;;;;;;;5066014;28;20025;-75
2022/01/25 10:11:56;;;;;;;37.33;21.45;;;;;;;;;;5064562;28;20448;-77
2022/01/25 10:14:25;;;;;;;28.73;18.00;;;;;;;;;;5062761;28;20956;-76
2022/01/25 10:16:52;;;;;;;32.22;19.73;;;;;;;;;;5066231;28;20068;-76
2022/01/25 10:19:22;;;;;;;42.22;23.10;;;;;;;;;;5065845;28;20544;-76
2022/01/25 10:21:50;;;;;;;42.38;24.13;;;;;;;;;;5066781;28;20028;-76
2022/01/25 10:24:17;;;;;;;34.33;19.58;;;;;;;;;;5067657;28;20031;-77
2022/01/25 10:27:02;;;;;;;32.08;19.15;;;;;;;;;;5068126;28;20050;-76
2022/01/25 10:29:30;;;;;;;34.78;19.42;;;;;;;;;;5064338;28;20454;-77
2022/01/25 10:32:04;;;;;;;35.65;22.35;;;;;;;;;;5061313;28;20028;-77
2022/01/25 10:34:31;;;;;;;34.45;20.15;;;;;;;;;;5055794;28;20043;-77
2022/01/25 10:36:59;;;;;;;34.92;22.65;;;;;;;;;;5055816;28;20519;-77
2022/01/25 10:39:32;;;;;;;37.33;21.90;;;;;;;;;;5060862;28;20059;-76
2022/01/25 10:42:20;;;;;;;29.10;17.52;;;;;;;;;;5065932;28;20016;-78
2022/01/25 10:44:46;;;;;;;37.97;23.42;;;;;;;;;;5075774;28;20039;-76
2022/01/25 10:47:11;;;;;;;31.50;19.25;;;;;;;;;;5073821;28;20027;-78
2022/01/25 10:49:43;;;;;;;35.90;21.52;;;;;;;;;;5068628;28;20024;-75
2022/01/25 10:52:08;;;;;;;30.02;17.25;;;;;;;;;;5055444;28;20020;-76
2022/01/25 10:54:38;;;;;;;35.13;21.70;;;;;;;;;;5056545;28;20181;-76
2022/01/25 10:57:03;;;;;;;32.22;19.63;;;;;;;;;;5057188;28;20107;-77
2022/01/25 10:59:30;;;;;;;49.80;30.83;;;;;;;;;;5055051;28;20875;-77
2022/01/25 11:01:57;;;;;;;60.97;32.53;;;;;;;;;;5056818;28;20096;-78
2022/01/25 11:04:28;;;;;;;152.48;79.15;;;;;;;;;;5067970;28;20027;-77
2022/01/25 11:06:55;;;;;;;62.47;33.38;;;;;;;;;;5058368;28;20525;-76
2022/01/25 11:09:23;;;;;;;54.25;29.15;;;;;;;;;;5054708;28;20066;-75
2022/01/25 11:11:52;;;;;;;43.05;24.23;;;;;;;;;;5055989;28;20020;-76
2022/01/25 11:17:01;;;;;;;47.72;24.35;;;;;;;;;;5060243;28;20055;-76
2022/01/25 11:19:27;;;;;;;29.63;17.40;;;;;;;;;;5057390;28;20021;-76
2022/01/25 11:21:53;;;;;;;41.67;25.45;;;;;;;;;;5060856;28;20032;-77
2022/01/25 11:24:20;;;;;;;31.25;18.00;;;;;;;;;;5064166;28;20455;-76
2022/01/25 11:26:46;;;;;;;34.25;20.90;;;;;;;;;;5070064;28;20382;-77
2022/01/25 11:29:12;;;;;;;39.78;24.23;;;;;;;;;;5076669;28;20489;-78
2022/01/25 11:31:38;;;;;;;34.17;21.08;;;;;;;;;;5076069;28;20020;-78
2022/01/25 11:34:06;;;;;;;37.72;21.90;;;;;;;;;;5075972;28;20024;-78
2022/01/25 11:36:32;;;;;;;30.50;18.25;;;;;;;;;;5075107;28;20067;-79
2022/01/25 11:38:57;;;;;;;63.53;35.22;;;;;;;;;;5076433;28;20098;-79
2022/01/25 11:41:26;;;;;;;46.67;27.25;;;;;;;;;;5074572;28;20028;-76
2022/01/25 11:44:11;;;;;;;37.50;21.48;;;;;;;;;;5076423;28;20109;-77
2022/01/25 11:46:39;;;;;;;52.38;31.13;;;;;;;;;;5074645;28;20398;-77
2022/01/25 11:49:06;;;;;;;107.43;53.10;;;;;;;;;;5075219;28;20035;-76
2022/01/25 11:51:33;;;;;;;81.70;42.72;;;;;;;;;;5077396;28;20024;-78
2022/01/25 11:54:01;;;;;;;58.25;30.63;;;;;;;;;;5074576;28;20024;-77
2022/01/25 11:56:26;;;;;;;87.78;45.47;;;;;;;;;;5074126;28;20036;-76
2022/01/25 11:58:53;;;;;;;44.92;26.17;;;;;;;;;;5074320;28;20080;-76
2022/01/25 12:01:19;;;;;;;45.20;26.08;;;;;;;;;;5075851;28;20024;-76
2022/01/25 12:03:46;;;;;;;57.95;31.13;;;;;;;;;;5076872;28;20028;-77
2022/01/25 12:42:00;;;;;;;45.28;29.20;;;;;;;;;;5089186;27;20390;-79
2022/01/25 12:44:25;;;;;;;44.22;25.05;;;;;;;;;;5104700;28;20044;-77
2022/01/25 12:46:51;;;;;;;128.88;52.00;;;;;;;;;;5088818;28;20042;-79
2022/01/25 12:49:20;;;;;;;37.22;23.13;;;;;;;;;;5088823;28;20022;-79
2022/01/25 12:51:50;;;;;;;50.05;26.38;;;;;;;;;;5091918;28;20020;-80
2022/01/25 12:54:15;;;;;;;;;;;;;;;;;;5057033;28;20052;-79
2022/01/25 12:56:43;;;;;;;34.20;19.00;;;;;;;;;;5052029;28;19951;-78
2022/01/25 12:59:13;;;;;;;35.03;20.45;;;;;;;;;;5049620;28;20032;-77
2022/01/25 13:01:39;;;;;;;44.03;22.17;;;;;;;;;;5055207;28;20020;-77
2022/01/25 13:04:06;;;;;;;45.67;23.98;;;;;;;;;;5071669;28;20111;-78
2022/01/25 13:06:37;;;;;;;34.60;20.10;;;;;;;;;;5083760;28;20016;-78
2022/01/25 13:14:48;;;;;;;37.88;20.52;;;;;;;;;;5070888;28;20027;-78
2022/01/25 13:17:18;;;;;;;25.63;16.23;;;;;;;;;;5051801;28;20182;-79
2022/01/25 13:19:56;;;;;;;21.55;14.52;;;;;;;;;;5050024;28;20020;-78
2022/01/25 13:22:23;;;;;;;36.50;20.25;;;;;;;;;;5050963;28;20090;-79
2022/01/25 13:25:00;;;;;;;32.20;18.60;;;;;;;;;;5051594;28;20029;-79
2022/01/25 13:27:30;;;;;;;38.42;21.00;;;;;;;;;;5048673;28;20105;-79
2022/01/25 13:32:41;;;;;;;45.47;24.02;;;;;;;;;;5070448;28;20046;-77
2022/01/25 13:35:20;;;;;;;72.13;36.97;;;;;;;;;;5051898;28;20032;-80
2022/01/25 13:38:00;;;;;;;54.25;27.63;;;;;;;;;;5070021;28;20059;-79
2022/01/25 13:40:33;;;;;;;51.55;29.65;;;;;;;;;;5072584;28;20450;-77
2022/01/25 13:43:19;;;;;;;36.70;20.45;;;;;;;;;;5063328;28;20063;-79
2022/01/25 13:45:48;;;;;;;40.33;22.77;;;;;;;;;;5056239;28;20552;-79
2022/01/25 13:48:20;;;;;;;41.72;21.05;;;;;;;;;;5038714;28;20103;-79
2022/01/25 13:50:45;;;;;;;43.53;22.98;;;;;;;;;;5039079;28;20484;-79
2022/01/25 13:53:11;;;;;;;34.22;19.65;;;;;;;;;;5056827;28;20100;-79
2022/01/25 13:55:37;;;;;;;57.55;29.15;;;;;;;;;;5063007;28;20028;-78
2022/01/25 13:58:17;;;;;;;57.00;30.55;;;;;;;;;;5056659;28;20024;-80
2022/01/25 14:00:42;;;;;;;32.60;18.33;;;;;;;;;;5038468;28;20031;-79
2022/01/25 14:03:08;;;;;;;37.78;20.02;;;;;;;;;;5060745;28;20029;-79
2022/01/25 14:05:37;;;;;;;58.00;29.15;;;;;;;;;;5038452;28;20721;-79
2022/01/25 14:08:02;;;;;;;43.88;24.27;;;;;;;;;;5056901;28;20021;-79
2022/01/25 14:10:29;;;;;;;55.90;29.15;;;;;;;;;;5038763;28;20380;-79
2022/01/25 14:23:54;;;;;;;68.50;31.40;;;;;;;;;;5053880;28;20036;-78
2022/01/25 14:26:20;;;;;;;85.45;35.17;;;;;;;;;;5038499;28;20796;-79
2022/01/25 14:28:54;;;;;;;43.83;21.80;;;;;;;;;;5055042;28;20029;-79
2022/01/25 14:31:23;;;;;;;42.92;22.15;;;;;;;;;;5054755;28;20036;-78
2022/01/25 14:33:59;;;;;;;50.97;26.17;;;;;;;;;;5049960;28;20585;-77
2022/01/25 14:36:26;;;;;;;39.63;20.10;;;;;;;;;;5051960;28;20073;-78
2022/01/25 14:38:54;;;;;;;35.78;20.52;;;;;;;;;;5056168;28;20095;-80
2022/01/25 14:41:27;;;;;;;36.58;19.40;;;;;;;;;;5037697;28;20040;-79
2022/01/25 14:43:55;;;;;;;40.65;22.92;;;;;;;;;;5054559;28;20028;-76
2022/01/25 14:46:27;;;;;;;28.73;15.38;;;;;;;;;;5053108;28;20032;-77
2022/01/25 14:49:18;;;;;;;32.58;17.35;;;;;;;;;;5037068;28;20025;-78
2022/01/25 14:51:48;;;;;;;33.30;17.80;;;;;;;;;;5037209;28;21130;-80
2022/01/25 14:54:15;;;;;;;23.52;13.80;;;;;;;;;;5054078;28;20029;-77
2022/01/25 14:56:50;;;;;;;35.03;20.40;;;;;;;;;;5035180;28;20024;-77
2022/01/25 15:02:10;;;;;;;37.83;20.92;;;;;;;;;;5051119;28;20093;-78
2022/01/25 15:04:40;;;;;;;45.67;23.92;;;;;;;;;;5054823;28;20501;-77
2022/01/25 15:07:10;;;;;;;52.65;26.25;;;;;;;;;;5054350;28;20024;-78
2022/01/25 15:09:35;;;;;;;56.92;32.35;;;;;;;;;;5034743;28;20147;-78
2022/01/25 15:12:01;;;;;;;94.35;53.47;;;;;;;;;;5035897;28;20492;-77
2022/01/25 15:14:36;;;;;;;61.60;34.40;;;;;;;;;;5051452;28;20039;-77
2022/01/25 15:17:01;;;;;;;53.53;30.70;;;;;;;;;;5036160;28;20804;-79
2022/01/25 15:19:27;;;;;;;54.30;32.28;;;;;;;;;;5035609;28;20016;-79
2022/01/25 15:21:52;;;;;;;45.67;25.48;;;;;;;;;;5061335;28;20020;-78
2022/01/25 15:24:18;;;;;;;93.28;48.67;;;;;;;;;;5055260;28;20449;-77
2022/01/25 15:26:46;;;;;;;71.03;36.03;;;;;;;;;;5054912;28;20020;-77
2022/01/25 15:29:16;;;;;;;58.35;28.15;;;;;;;;;;5035879;28;20027;-77
2022/01/25 15:31:42;;;;;;;101.15;48.20;;;;;;;;;;5054356;28;20039;-79
2022/01/25 15:34:08;;;;;;;103.57;47.17;;;;;;;;;;5054694;28;20028;-77
2022/01/25 15:36:33;;;;;;;62.30;32.35;;;;;;;;;;5060324;28;20036;-78
2022/01/25 15:38:59;;;;;;;84.05;41.25;;;;;;;;;;5056769;28;20580;-78
2022/01/25 15:41:24;;;;;;;86.38;43.35;;;;;;;;;;5055392;28;20044;-77
2022/01/25 15:43:53;;;;;;;81.97;38.35;;;;;;;;;;5036720;28;20099;-79
2022/01/25 15:46:29;;;;;;;114.77;55.60;;;;;;;;;;5037253;28;20166;-79
2022/01/25 15:48:56;;;;;;;117.78;49.03;;;;;;;;;;5054456;28;20285;-79
2022/01/25 15:51:22;;;;;;;54.75;29.10;;;;;;;;;;5054971;28;20633;-79
2022/01/25 15:53:48;;;;;;;38.50;23.42;;;;;;;;;;5035887;28;20210;-80
2022/01/25 15:56:15;;;;;;;40.40;23.63;;;;;;;;;;5055240;28;20031;-79
2022/01/25 15:58:40;;;;;;;59.63;33.30;;;;;;;;;;5062120;28;20016;-78
2022/01/25 16:01:07;;;;;;;37.13;20.23;;;;;;;;;;5036422;28;20557;-77
2022/01/25 16:03:32;;;;;;;46.20;23.15;;;;;;;;;;5035875;28;20420;-79
2022/01/25 16:05:58;;;;;;;48.40;23.00;;;;;;;;;;5052258;28;20024;-78
2022/01/25 16:08:24;;;;;;;118.32;49.10;;;;;;;;;;5054696;28;20078;-78
2022/01/25 16:10:50;;;;;;;144.85;60.55;;;;;;;;;;5055282;28;20028;-78
2022/01/25 16:13:16;;;;;;;98.38;52.08;;;;;;;;;;5055042;28;20086;-78
2022/01/25 16:15:41;;;;;;;82.28;36.75;;;;;;;;;;5054867;28;21087;-78
2022/01/25 16:18:07;;;;;;;57.47;30.10;;;;;;;;;;5036772;28;20028;-78
2022/01/25 16:20:33;;;;;;;83.50;42.58;;;;;;;;;;5036755;28;20094;-78
2022/01/25 16:22:59;;;;;;;75.63;38.20;;;;;;;;;;5037042;28;20024;-79
2022/01/25 16:25:24;;;;;;;37.85;20.65;;;;;;;;;;5054296;28;20028;-78
2022/01/25 16:27:50;;;;;;;37.15;22.38;;;;;;;;;;5053268;28;20486;-78
2022/01/25 16:30:16;;;;;;;37.05;21.13;;;;;;;;;;5035654;28;20967;-77
2022/01/25 16:32:44;;;;;;;53.88;29.42;;;;;;;;;;5036422;28;20154;-78
2022/01/25 16:35:09;;;;;;;41.47;23.02;;;;;;;;;;5062338;28;20047;-77
2022/01/25 16:37:35;;;;;;;37.38;17.30;;;;;;;;;;5054323;28;20508;-78
2022/01/25 16:40:00;;;;;;;30.65;16.08;;;;;;;;;;5061254;28;20110;-79
2022/01/25 16:42:26;;;;;;;47.08;27.00;;;;;;;;;;5050344;28;20020;-81
2022/01/25 16:44:58;;;;;;;42.42;22.30;;;;;;;;;;5052680;28;20020;-78
2022/01/25 16:47:24;;;;;;;58.28;32.40;;;;;;;;;;5052431;28;20512;-79
2022/01/25 16:49:51;;;;;;;53.85;29.10;;;;;;;;;;5064872;28;20025;-78
2022/01/25 16:52:17;;;;;;;66.47;38.55;;;;;;;;;;5064421;28;20159;-80
2022/01/25 16:54:43;;;;;;;55.72;32.20;;;;;;;;;;5052059;28;20115;-79
2022/01/25 16:57:08;;;;;;;55.15;34.67;;;;;;;;;;5053292;28;20020;-79
2022/01/25 16:59:35;;;;;;;87.88;53.65;;;;;;;;;;5054033;28;20032;-79